createdAt,value
2023-01-06T00:01:23.194Z,101863.53
2023-01-06T00:03:51.761Z,101875.50
2023-01-06T00:06:22.849Z,101894.50
2023-01-06T00:08:49.735Z,101884.91
2023-01-06T00:11:16.754Z,101893.47
2023-01-06T00:13:43.636Z,101890.00
2023-01-06T00:16:17.081Z,101882.94
2023-01-06T00:18:44.597Z,101883.66
2023-01-06T00:21:13.762Z,101882.69
2023-01-06T00:23:40.867Z,101874.81
2023-01-06T00:26:10.039Z,101869.44
2023-01-06T00:28:37.412Z,101873.50
2023-01-06T00:31:13.847Z,101861.72
2023-01-06T00:33:41.686Z,101857.59
2023-01-06T00:36:10.252Z,101862.59
2023-01-06T00:38:38.097Z,101872.75
2023-01-06T00:41:30.139Z,101849.09
2023-01-06T00:43:58.199Z,101870.69
2023-01-06T00:46:29.156Z,101862.81
2023-01-06T00:49:06.957Z,101848.81
2023-01-06T00:51:39.925Z,101838.41
2023-01-06T00:54:12.561Z,101844.16
2023-01-06T00:56:42.693Z,101835.41
2023-01-06T00:59:11.644Z,101834.44
2023-01-06T01:01:39.175Z,101840.41
2023-01-06T01:04:06.805Z,101870.53
2023-01-06T01:06:34.182Z,101857.31
2023-01-06T01:09:01.345Z,101854.19
2023-01-06T01:11:47.543Z,101858.38
2023-01-06T01:14:17.178Z,101857.72
2023-01-06T01:16:44.578Z,101852.63
2023-01-06T01:19:12.845Z,101855.31
2023-01-06T01:21:40.320Z,101857.94
2023-01-06T01:24:07.658Z,101854.47
2023-01-06T01:26:34.788Z,101852.03
2023-01-06T01:29:02.023Z,101855.69
2023-01-06T01:31:30.545Z,101859.22
2023-01-06T01:33:57.604Z,101855.00
2023-01-06T01:36:24.643Z,101855.16
2023-01-06T01:38:51.523Z,101856.09
2023-01-06T01:41:22.518Z,101852.88
2023-01-06T01:44:49.345Z,101856.50
2023-01-06T01:47:28.816Z,101846.31
2023-01-06T01:50:17.752Z,101853.19
2023-01-06T01:52:47.267Z,101844.03
2023-01-06T01:55:15.102Z,101845.81
2023-01-06T01:57:58.542Z,101838.13
2023-01-06T02:00:26.389Z,101846.00
2023-01-06T02:02:54.807Z,101847.94
2023-01-06T02:05:25.973Z,101848.06
2023-01-06T02:07:57.309Z,101844.00
2023-01-06T02:10:24.725Z,101843.13
2023-01-06T02:12:57.348Z,101841.72
2023-01-06T02:15:31.163Z,101835.00
2023-01-06T02:18:08.075Z,101830.81
2023-01-06T02:21:09.798Z,101828.34
2023-01-06T02:24:06.618Z,101825.91
2023-01-06T02:27:12.081Z,101820.91
2023-01-06T02:30:20.567Z,101824.38
2023-01-06T02:33:05.529Z,101832.19
2023-01-06T02:36:06.092Z,101826.22
2023-01-06T02:38:54.391Z,101819.44
2023-01-06T02:41:47.501Z,101816.09
2023-01-06T02:44:27.920Z,101824.06
2023-01-06T02:47:19.868Z,101813.78
2023-01-06T02:50:20.229Z,101812.16
2023-01-06T02:52:54.467Z,101800.22
2023-01-06T02:55:36.811Z,101794.22
2023-01-06T02:58:18.568Z,101783.03
2023-01-06T03:00:57.477Z,101785.69
2023-01-06T03:03:29.295Z,101784.94
2023-01-06T03:06:05.785Z,101791.94
2023-01-06T03:08:34.185Z,101795.50
2023-01-06T03:11:02.823Z,101781.84
2023-01-06T03:13:47.933Z,101783.78
2023-01-06T03:16:16.129Z,101786.47
2023-01-06T03:18:45.413Z,101777.16
2023-01-06T03:21:17.198Z,101774.78
2023-01-06T03:23:46.081Z,101758.53
2023-01-06T03:26:13.574Z,101745.75
2023-01-06T03:28:40.752Z,101745.88
2023-01-06T03:31:52.896Z,101740.72
2023-01-06T03:34:50.482Z,101738.94
2023-01-06T03:37:32.697Z,101734.72
2023-01-06T03:40:41.271Z,101737.31
2023-01-06T03:43:30.475Z,101738.06
2023-01-06T03:46:24.341Z,101728.69
2023-01-06T03:49:09.295Z,101725.28
2023-01-06T03:52:07.126Z,101724.50
2023-01-06T03:54:59.974Z,101716.00
2023-01-06T03:57:54.454Z,101720.38
2023-01-06T04:00:27.502Z,101713.44
2023-01-06T04:03:01.706Z,101704.75
2023-01-06T04:05:29.534Z,101710.91
2023-01-06T04:07:58.761Z,101710.09
2023-01-06T04:10:26.760Z,101700.72
2023-01-06T04:12:56.914Z,101700.81
2023-01-06T04:15:29.476Z,101704.34
2023-01-06T04:17:57.591Z,101695.72
2023-01-06T04:20:28.929Z,101682.94
2023-01-06T04:23:01.727Z,101685.50
2023-01-06T04:25:34.056Z,101681.22
2023-01-06T04:28:09.070Z,101664.91
2023-01-06T04:30:36.064Z,101664.16
2023-01-06T04:33:03.439Z,101664.25
2023-01-06T04:35:30.331Z,101669.53
2023-01-06T04:38:03.269Z,101654.69
2023-01-06T04:40:30.174Z,101653.28
2023-01-06T04:43:05.632Z,101655.94
2023-01-06T04:45:36.213Z,101651.66
2023-01-06T04:48:03.118Z,101649.16
2023-01-06T04:50:30.087Z,101644.94
2023-01-06T04:52:56.987Z,101639.75
2023-01-06T04:55:24.089Z,101628.50
2023-01-06T04:57:51.260Z,101628.50
2023-01-06T05:00:18.881Z,101625.06
2023-01-06T05:02:46.212Z,101628.47
2023-01-06T05:05:13.953Z,101617.25
2023-01-06T05:07:40.849Z,101615.44
2023-01-06T05:10:10.195Z,101622.25
2023-01-06T05:12:37.194Z,101620.41
2023-01-06T05:15:04.667Z,101618.72
2023-01-06T05:17:31.558Z,101614.41
2023-01-06T05:19:58.488Z,101608.44
2023-01-06T05:22:25.370Z,101599.88
2023-01-06T05:24:52.257Z,101596.44
2023-01-06T05:27:19.145Z,101599.09
2023-01-06T05:29:46.038Z,101594.81
2023-01-06T05:32:12.935Z,101589.63
2023-01-06T05:34:39.820Z,101577.59
2023-01-06T05:37:06.720Z,101573.31
2023-01-06T05:39:33.599Z,101575.94
2023-01-06T05:42:00.481Z,101568.16
2023-01-06T05:44:27.345Z,101573.31
2023-01-06T05:46:54.240Z,101570.78
2023-01-06T05:49:21.121Z,101562.22
2023-01-06T05:51:48.763Z,101555.38
2023-01-06T05:54:15.778Z,101547.63
2023-01-06T05:56:42.668Z,101549.41
2023-01-06T05:59:09.583Z,101544.34
2023-01-06T06:01:36.528Z,101532.38
2023-01-06T06:04:03.487Z,101521.09
2023-01-06T06:06:31.024Z,101535.94
2023-01-06T06:08:58.625Z,101531.78
2023-01-06T06:11:25.611Z,101536.09
2023-01-06T06:13:55.274Z,101547.41
2023-01-06T06:16:25.644Z,101553.53
2023-01-06T06:18:56.250Z,101546.88
2023-01-06T06:21:29.456Z,101528.91
2023-01-06T06:23:58.290Z,101526.59
2023-01-06T06:26:25.763Z,101509.53
2023-01-06T06:28:52.815Z,101496.50
2023-01-06T06:31:23.591Z,101502.75
2023-01-06T06:33:52.961Z,101489.66
2023-01-06T06:36:20.463Z,101467.91
2023-01-06T06:38:49.974Z,101474.91
2023-01-06T06:41:18.451Z,101474.00
2023-01-06T06:43:45.586Z,101473.88
2023-01-06T06:46:12.666Z,101470.31
2023-01-06T06:48:39.785Z,101472.72
2023-01-06T06:51:16.932Z,101473.38
2023-01-06T06:53:45.006Z,101456.03
2023-01-06T06:56:13.584Z,101461.81
2023-01-06T06:58:41.019Z,101447.00
2023-01-06T07:01:16.945Z,101450.25
2023-01-06T07:03:44.030Z,101439.75
2023-01-06T07:06:15.131Z,101436.22
2023-01-06T07:08:46.724Z,101453.34
2023-01-06T07:11:13.925Z,101453.28
2023-01-06T07:13:40.951Z,101461.78
2023-01-06T07:16:08.474Z,101464.34
2023-01-06T07:18:35.489Z,101465.28
2023-01-06T07:21:02.445Z,101446.25
2023-01-06T07:23:30.502Z,101456.91
2023-01-06T07:25:59.756Z,101450.00
2023-01-06T07:28:29.061Z,101451.81
2023-01-06T07:30:56.040Z,101445.88
2023-01-06T07:33:23.367Z,101436.50
2023-01-06T07:35:55.413Z,101422.00
2023-01-06T07:38:23.255Z,101419.53
2023-01-06T07:40:50.396Z,101423.81
2023-01-06T07:43:17.305Z,101413.53
2023-01-06T07:45:48.001Z,101414.53
2023-01-06T07:48:15.257Z,101412.03
2023-01-06T07:50:42.177Z,101407.03
2023-01-06T07:53:09.749Z,101406.25
2023-01-06T07:55:36.688Z,101405.50
2023-01-06T07:58:09.839Z,101396.75
2023-01-06T08:00:37.253Z,101392.44
2023-01-06T08:03:06.834Z,101394.28
2023-01-06T08:05:36.332Z,101391.91
2023-01-06T08:08:03.224Z,101387.66
2023-01-06T08:10:30.081Z,101369.66
2023-01-06T08:12:56.941Z,101374.13
2023-01-06T08:15:23.812Z,101367.28
2023-01-06T08:17:54.776Z,101356.63
2023-01-06T08:20:22.770Z,101370.66
2023-01-06T08:22:49.804Z,101365.59
2023-01-06T08:25:16.769Z,101368.22
2023-01-06T08:27:43.640Z,101363.97
2023-01-06T08:30:11.427Z,101364.03
2023-01-06T08:32:38.318Z,101350.22
2023-01-06T08:35:05.564Z,101333.53
2023-01-06T08:37:32.462Z,101346.78
2023-01-06T08:39:59.360Z,101333.78
2023-01-06T08:42:26.323Z,101346.84
2023-01-06T08:44:53.213Z,101338.16
2023-01-06T08:47:20.104Z,101334.06
2023-01-06T08:49:47.002Z,101325.47
2023-01-06T08:52:14.029Z,101327.38
2023-01-06T08:54:40.903Z,101320.53
2023-01-06T08:57:09.065Z,101328.31
2023-01-06T08:59:35.958Z,101325.91
2023-01-06T09:02:02.925Z,101317.31
2023-01-06T09:04:29.863Z,101313.94
2023-01-06T09:06:57.588Z,101312.28
2023-01-06T09:09:24.741Z,101309.72
2023-01-06T09:11:51.603Z,101310.66
2023-01-06T09:14:18.566Z,101304.69
2023-01-06T09:16:47.693Z,101300.53
2023-01-06T09:19:16.676Z,101301.53
2023-01-06T09:21:43.559Z,101293.94
2023-01-06T09:24:14.151Z,101292.34
2023-01-06T09:26:41.271Z,101303.72
2023-01-06T09:29:08.140Z,101298.66
2023-01-06T09:31:35.115Z,101290.91
2023-01-06T09:34:01.990Z,101285.78
2023-01-06T09:36:28.859Z,101280.69
2023-01-06T09:38:55.768Z,101279.91
2023-01-06T09:42:10.569Z,101277.41
2023-01-06T09:44:52.641Z,101274.06
2023-01-06T09:47:35.954Z,101271.56
2023-01-06T09:50:41.574Z,101262.16
2023-01-06T09:53:25.979Z,101254.50
2023-01-06T09:55:58.104Z,101247.66
2023-01-06T09:58:33.019Z,101254.69
2023-01-06T10:01:07.224Z,101241.88
2023-01-06T10:03:34.293Z,101242.16
2023-01-06T10:06:33.493Z,101247.41
2023-01-06T10:09:30.381Z,101246.69
2023-01-06T10:12:43.606Z,101239.88
2023-01-06T10:15:29.464Z,101221.69
2023-01-06T10:18:42.372Z,101229.72
2023-01-06T10:21:12.314Z,101213.41
2023-01-06T10:24:03.311Z,101208.28
2023-01-06T10:26:32.224Z,101211.06
2023-01-06T10:29:12.271Z,101195.56
2023-01-06T10:31:43.930Z,101189.72
2023-01-06T10:34:24.813Z,101180.47
2023-01-06T10:37:10.152Z,101171.97
2023-01-06T10:39:39.763Z,101163.44
2023-01-06T10:42:48.542Z,101160.09
2023-01-06T10:45:15.573Z,101155.94
2023-01-06T10:47:43.746Z,101146.47
2023-01-06T10:50:16.711Z,101151.84
2023-01-06T10:52:45.505Z,101137.13
2023-01-06T10:55:31.874Z,101138.25
2023-01-06T10:58:07.474Z,101131.41
2023-01-06T11:00:34.937Z,101144.47
2023-01-06T11:03:31.339Z,101125.38
2023-01-06T11:06:21.465Z,101129.09
2023-01-06T11:08:48.404Z,101126.59
2023-01-06T11:11:27.721Z,101125.81
2023-01-06T11:13:59.867Z,101123.31
2023-01-06T11:16:31.703Z,101118.25
2023-01-06T11:19:05.330Z,101114.88
2023-01-06T11:21:49.026Z,101109.75
2023-01-06T11:24:17.861Z,101108.09
2023-01-06T11:26:53.832Z,101104.69
2023-01-06T11:29:35.341Z,101095.25
2023-01-06T11:32:27.189Z,101093.63
2023-01-06T11:34:59.188Z,101093.69
2023-01-06T11:37:37.578Z,101083.41
2023-01-06T11:40:24.941Z,101090.38
2023-01-06T11:42:59.513Z,101081.81
2023-01-06T11:45:44.744Z,101080.13
2023-01-06T11:48:21.389Z,101085.38
2023-01-06T11:51:04.423Z,101077.66
2023-01-06T11:53:33.434Z,101082.03
2023-01-06T11:56:02.576Z,101072.56
2023-01-06T11:58:57.010Z,101075.22
2023-01-06T12:01:43.638Z,101072.72
2023-01-06T12:04:36.491Z,101067.53
2023-01-06T12:07:26.539Z,101069.34
2023-01-06T12:09:55.731Z,101067.63
2023-01-06T12:12:27.385Z,101065.09
2023-01-06T12:14:55.889Z,101058.22
2023-01-06T12:17:44.116Z,101059.09
2023-01-06T12:20:41.497Z,101051.38
2023-01-06T12:23:16.166Z,101052.31
2023-01-06T12:25:47.349Z,101061.03
2023-01-06T12:28:34.163Z,101051.53
2023-01-06T12:31:22.677Z,101055.88
2023-01-06T12:34:02.292Z,101048.09
2023-01-06T12:36:45.873Z,101048.97
2023-01-06T12:39:32.183Z,101044.66
2023-01-06T12:42:09.294Z,101042.09
2023-01-06T12:44:54.537Z,101043.88
2023-01-06T12:47:37.920Z,101035.25
2023-01-06T12:50:47.747Z,101049.16
2023-01-06T12:53:25.753Z,101037.88
2023-01-06T12:56:36.371Z,101044.84
2023-01-06T12:59:46.723Z,101048.31
2023-01-06T13:02:55.919Z,101043.09
2023-01-06T13:06:13.920Z,101041.41
2023-01-06T13:09:03.107Z,101041.41
2023-01-06T13:12:10.653Z,101050.13
2023-01-06T13:15:07.850Z,101039.78
2023-01-06T13:17:44.716Z,101043.28
2023-01-06T13:20:44.547Z,101036.31
2023-01-06T13:23:19.204Z,101042.50
2023-01-06T13:26:37.857Z,101049.50
2023-01-06T13:29:35.650Z,101041.75
2023-01-06T13:32:27.476Z,101045.22
2023-01-06T13:35:16.587Z,101045.28
2023-01-06T13:38:30.709Z,101054.03
2023-01-06T13:41:01.518Z,101054.91
2023-01-06T13:43:34.023Z,101057.56
2023-01-06T13:46:09.362Z,101061.97
2023-01-06T13:48:44.233Z,101060.25
2023-01-06T13:51:13.666Z,101060.25
2023-01-06T13:53:44.324Z,101056.81
2023-01-06T13:56:14.162Z,101060.34
2023-01-06T13:58:49.464Z,101066.47
2023-01-06T14:01:19.449Z,101069.09
2023-01-06T14:03:49.509Z,101070.91
2023-01-06T14:06:22.249Z,101077.00
2023-01-06T14:09:00.542Z,101077.03
2023-01-06T14:11:30.978Z,101086.59
2023-01-06T14:14:01.087Z,101081.41
2023-01-06T14:16:42.817Z,101089.28
2023-01-06T14:19:38.881Z,101095.34
2023-01-06T14:22:21.873Z,101106.66
2023-01-06T14:25:08.888Z,101111.03
2023-01-06T14:27:47.887Z,101126.72
2023-01-06T14:30:22.763Z,101132.81
2023-01-06T14:32:49.527Z,101145.00
2023-01-06T14:35:21.134Z,101141.50
2023-01-06T14:37:54.496Z,101155.47
2023-01-06T14:40:34.021Z,101159.78
2023-01-06T14:43:23.150Z,101166.75
2023-01-06T14:45:51.105Z,101168.53
2023-01-06T14:48:22.811Z,101174.59
2023-01-06T14:50:56.112Z,101177.22
2023-01-06T14:53:42.836Z,101192.84
2023-01-06T14:56:22.769Z,101187.53
2023-01-06T14:58:49.676Z,101200.66
2023-01-06T15:01:26.759Z,101206.72
2023-01-06T15:04:00.031Z,101208.47
2023-01-06T15:06:28.576Z,101222.38
2023-01-06T15:09:18.908Z,101231.91
2023-01-06T15:11:46.325Z,101238.00
2023-01-06T15:14:28.218Z,101230.97
2023-01-06T15:16:59.297Z,101237.03
2023-01-06T15:19:26.481Z,101228.31
2023-01-06T15:21:54.453Z,101238.66
2023-01-06T15:24:28.892Z,101240.38
2023-01-06T15:27:04.484Z,101235.97
2023-01-06T15:29:31.588Z,101244.63
2023-01-06T15:31:59.222Z,101254.09
2023-01-06T15:34:42.762Z,101248.72
2023-01-06T15:37:18.878Z,101252.16
2023-01-06T15:39:46.344Z,101266.03
2023-01-06T15:42:15.597Z,101259.06
2023-01-06T15:45:00.722Z,101269.38
2023-01-06T15:47:35.636Z,101271.00
2023-01-06T15:50:08.211Z,101278.81
2023-01-06T15:52:46.260Z,101276.13
2023-01-06T15:55:32.042Z,101282.16
2023-01-06T15:58:08.309Z,101287.28
2023-01-06T16:00:48.160Z,101295.94
2023-01-06T16:03:24.936Z,101300.28
2023-01-06T16:06:00.179Z,101308.13
2023-01-06T16:08:30.690Z,101308.97
2023-01-06T16:11:16.882Z,101316.78
2023-01-06T16:13:58.028Z,101305.47
2023-01-06T16:16:32.935Z,101321.94
2023-01-06T16:19:13.861Z,101322.81
2023-01-06T16:21:43.218Z,101321.97
2023-01-06T16:24:24.270Z,101326.28
2023-01-06T16:26:58.896Z,101323.63
2023-01-06T16:29:35.582Z,101337.53
2023-01-06T16:32:35.151Z,101338.38
2023-01-06T16:35:09.569Z,101345.22
2023-01-06T16:37:36.461Z,101348.69
2023-01-06T16:40:04.037Z,101349.53
2023-01-06T16:42:44.686Z,101353.81
2023-01-06T16:45:42.723Z,101352.91
2023-01-06T16:48:15.226Z,101355.44
2023-01-06T16:50:56.396Z,101349.28
2023-01-06T16:53:23.466Z,101352.75
2023-01-06T16:55:55.031Z,101363.13
2023-01-06T16:58:28.963Z,101355.22
2023-01-06T17:00:58.682Z,101361.25
2023-01-06T17:03:31.638Z,101358.66
2023-01-06T17:05:58.549Z,101366.41
2023-01-06T17:08:30.113Z,101367.28
2023-01-06T17:10:59.957Z,101369.84
2023-01-06T17:13:38.930Z,101367.19
2023-01-06T17:16:16.883Z,101374.94
2023-01-06T17:18:50.405Z,101374.00
2023-01-06T17:21:21.731Z,101371.31
2023-01-06T17:23:58.281Z,101377.31
2023-01-06T17:26:26.943Z,101391.16
2023-01-06T17:28:57.101Z,101390.19
2023-01-06T17:31:40.943Z,101386.66
2023-01-06T17:34:19.264Z,101388.34
2023-01-06T17:36:48.268Z,101385.72
2023-01-06T17:39:44.781Z,101392.56
2023-01-06T17:42:11.541Z,101388.22
2023-01-06T17:44:51.982Z,101390.81
2023-01-06T17:47:19.983Z,101395.97
2023-01-06T17:49:51.350Z,101391.56
2023-01-06T17:52:28.290Z,101401.13
2023-01-06T17:55:34.002Z,101411.50
2023-01-06T17:58:01.118Z,101401.88
2023-01-06T18:00:34.999Z,101407.09
2023-01-06T18:03:09.385Z,101403.59
2023-01-06T18:05:36.124Z,101403.63
2023-01-06T18:08:05.761Z,101405.31
2023-01-06T18:10:35.538Z,101416.56
2023-01-06T18:13:32.332Z,101412.19
2023-01-06T18:16:01.495Z,101413.00
2023-01-06T18:18:39.808Z,101423.41
2023-01-06T18:21:15.979Z,101419.06
2023-01-06T18:23:51.751Z,101404.28
2023-01-06T18:26:40.687Z,101411.22
2023-01-06T18:29:19.685Z,101413.72
2023-01-06T18:31:50.204Z,101417.22
2023-01-06T18:34:30.933Z,101417.22
2023-01-06T18:37:00.373Z,101440.63
2023-01-06T18:39:45.951Z,101424.97
2023-01-06T18:42:25.872Z,101437.97
2023-01-06T18:45:08.084Z,101444.03
2023-01-06T18:47:38.592Z,101445.72
2023-01-06T18:50:28.919Z,101453.47
2023-01-06T18:53:02.164Z,101450.84
2023-01-06T18:55:41.445Z,101452.53
2023-01-06T18:58:16.712Z,101459.47
2023-01-06T19:01:13.285Z,101463.81
2023-01-06T19:04:08.212Z,101449.06
2023-01-06T19:06:38.964Z,101451.72
2023-01-06T19:09:24.338Z,101448.22
2023-01-06T19:12:00.096Z,101459.53
2023-01-06T19:14:30.212Z,101459.53
2023-01-06T19:16:58.761Z,101447.28
2023-01-06T19:19:37.836Z,101465.59
2023-01-06T19:22:34.068Z,101443.88
2023-01-06T19:25:32.310Z,101459.47
2023-01-06T19:28:03.393Z,101456.84
2023-01-06T19:30:38.055Z,101464.59
2023-01-06T19:33:19.358Z,101461.03
2023-01-06T19:35:46.729Z,101468.00
2023-01-06T19:38:40.883Z,101465.31
2023-01-06T19:41:18.224Z,101458.09
2023-01-06T19:43:45.219Z,101463.53
2023-01-06T19:46:31.390Z,101468.59
2023-01-06T19:48:59.859Z,101464.22
2023-01-06T19:51:35.687Z,101466.72
2023-01-06T19:54:11.582Z,101471.03
2023-01-06T19:56:42.058Z,101472.66
2023-01-06T19:59:34.226Z,101474.25
2023-01-06T20:02:10.432Z,101481.25
2023-01-06T20:04:37.430Z,101484.66
2023-01-06T20:07:04.557Z,101490.69
2023-01-06T20:09:33.615Z,101485.44
2023-01-06T20:12:01.028Z,101481.81
2023-01-06T20:14:28.001Z,101491.38
2023-01-06T20:16:55.022Z,101483.47
2023-01-06T20:19:21.947Z,101493.88
2023-01-06T20:21:48.998Z,101485.03
2023-01-06T20:24:15.957Z,101492.94
2023-01-06T20:26:43.179Z,101487.53
2023-01-06T20:29:10.157Z,101502.41
2023-01-06T20:31:37.206Z,101497.94
2023-01-06T20:34:04.376Z,101502.34
2023-01-06T20:36:31.239Z,101498.81
2023-01-06T20:38:58.209Z,101497.94
2023-01-06T20:41:25.085Z,101495.28
2023-01-06T20:43:51.991Z,101497.94
2023-01-06T20:46:19.010Z,101496.97
2023-01-06T20:48:47.706Z,101500.34
2023-01-06T20:51:14.683Z,101499.38
2023-01-06T20:53:41.622Z,101495.78
2023-01-06T20:56:08.655Z,101500.91
2023-01-06T20:58:36.125Z,101504.34
2023-01-06T21:01:03.183Z,101503.41
2023-01-06T21:03:30.087Z,101494.50
2023-01-06T21:05:56.995Z,101505.81
2023-01-06T21:08:23.886Z,101507.47
2023-01-06T21:10:50.775Z,101502.25
2023-01-06T21:13:17.648Z,101504.72
2023-01-06T21:15:44.595Z,101508.09
2023-01-06T21:18:11.468Z,101504.56
2023-01-06T21:20:38.363Z,101500.91
2023-01-06T21:23:05.801Z,101509.56
2023-01-06T21:25:32.701Z,101515.53
2023-01-06T21:27:59.589Z,101524.13
2023-01-06T21:30:28.264Z,101519.69
2023-01-06T21:32:55.245Z,101515.34
2023-01-06T21:35:22.159Z,101519.59
2023-01-06T21:37:49.069Z,101528.22
2023-01-06T21:40:16.023Z,101526.44
2023-01-06T21:43:01.417Z,101501.75
2023-01-06T21:45:28.893Z,101514.13
2023-01-06T21:47:56.069Z,101511.34
2023-01-06T21:50:25.398Z,101513.31
2023-01-06T21:52:54.021Z,101515.00
2023-01-06T21:55:20.925Z,101515.00
2023-01-06T21:57:48.387Z,101500.03
2023-01-06T22:00:15.810Z,101512.38
2023-01-06T22:02:42.914Z,101524.56
2023-01-06T22:05:09.874Z,101522.03
2023-01-06T22:07:41.319Z,101529.88
2023-01-06T22:10:10.873Z,101516.13
2023-01-06T22:12:39.756Z,101526.63
2023-01-06T22:15:08.537Z,101528.38
2023-01-06T22:17:35.478Z,101526.72
2023-01-06T22:20:03.519Z,101524.22
2023-01-06T22:22:30.736Z,101510.34
2023-01-06T22:24:58.026Z,101514.75
2023-01-06T22:27:24.876Z,101508.56
2023-01-06T22:29:51.783Z,101514.00
2023-01-06T22:32:18.643Z,101526.97
2023-01-06T22:34:45.532Z,101526.13
2023-01-06T22:37:12.405Z,101532.25
2023-01-06T22:39:39.262Z,101531.38
2023-01-06T22:42:06.152Z,101533.91
2023-01-06T22:44:33.008Z,101527.84
2023-01-06T22:47:00.463Z,101537.41
2023-01-06T22:49:27.348Z,101540.00
2023-01-06T22:51:54.208Z,101535.69
2023-01-06T22:54:21.099Z,101529.63
2023-01-06T22:56:47.968Z,101529.63
2023-01-06T22:59:14.884Z,101539.06
2023-01-06T23:01:41.892Z,101542.47
2023-01-06T23:04:09.023Z,101545.84
2023-01-06T23:06:35.908Z,101539.75
2023-01-06T23:09:02.847Z,101543.13
2023-01-06T23:11:31.347Z,101549.09
2023-01-06T23:13:58.886Z,101531.47
2023-01-06T23:16:27.196Z,101551.50
2023-01-06T23:18:54.459Z,101549.44
2023-01-06T23:21:26.882Z,101554.63
2023-01-06T23:23:54.223Z,101561.41
2023-01-06T23:26:45.209Z,101554.34
2023-01-06T23:29:13.464Z,101549.81
2023-01-06T23:31:43.948Z,101557.59
2023-01-06T23:34:17.477Z,101551.34
2023-01-06T23:36:44.883Z,101535.53
2023-01-06T23:39:16.834Z,101540.88
2023-01-06T23:41:44.088Z,101543.44
2023-01-06T23:44:18.059Z,101535.53
2023-01-06T23:46:45.562Z,101538.97
2023-01-06T23:49:16.527Z,101543.88
2023-01-06T23:51:44.214Z,101551.00
2023-01-06T23:54:12.264Z,101550.97
2023-01-06T23:56:40.314Z,101550.13
2023-01-06T23:59:09.970Z,101551.84
